sensor_id;sensor_type;location;lat;lon;timestamp;P1;durP1;ratioP1;P2;durP2;ratioP2
15240;SDS011;7723;52.170;9.978;2022-11-15T00:00:49;8.05;;;5.53;;
15240;SDS011;7723;52.170;9.978;2022-11-15T00:03:17;6.95;;;5.32;;
15240;SDS011;7723;52.170;9.978;2022-11-15T00:05:47;8.82;;;5.53;;
15240;SDS011;7723;52.170;9.978;2022-11-15T00:08:15;7.43;;;5.30;;
15240;SDS011;7723;52.170;9.978;2022-11-15T00:10:42;8.95;;;5.43;;
15240;SDS011;7723;52.170;9.978;2022-11-15T00:13:19;9.60;;;5.45;;
15240;SDS011;7723;52.170;9.978;2022-11-15T00:15:47;7.05;;;5.25;;
15240;SDS011;7723;52.170;9.978;2022-11-15T00:18:14;6.82;;;4.95;;
15240;SDS011;7723;52.170;9.978;2022-11-15T00:20:42;8.38;;;5.60;;
15240;SDS011;7723;52.170;9.978;2022-11-15T00:23:11;8.23;;;4.60;;
15240;SDS011;7723;52.170;9.978;2022-11-15T00:25:38;7.45;;;5.10;;
15240;SDS011;7723;52.170;9.978;2022-11-15T00:28:06;9.70;;;6.03;;
15240;SDS011;7723;52.170;9.978;2022-11-15T00:30:33;7.53;;;4.88;;
15240;SDS011;7723;52.170;9.978;2022-11-15T00:33:01;8.45;;;5.07;;
15240;SDS011;7723;52.170;9.978;2022-11-15T00:35:31;6.93;;;5.00;;
15240;SDS011;7723;52.170;9.978;2022-11-15T00:37:59;7.55;;;4.88;;
15240;SDS011;7723;52.170;9.978;2022-11-15T00:40:28;5.88;;;4.75;;
15240;SDS011;7723;52.170;9.978;2022-11-15T00:42:55;7.28;;;4.70;;
15240;SDS011;7723;52.170;9.978;2022-11-15T00:45:23;7.95;;;5.07;;
15240;SDS011;7723;52.170;9.978;2022-11-15T00:47:51;8.52;;;5.82;;
15240;SDS011;7723;52.170;9.978;2022-11-15T00:50:18;7.72;;;4.95;;
15240;SDS011;7723;52.170;9.978;2022-11-15T00:52:45;7.07;;;4.38;;
15240;SDS011;7723;52.170;9.978;2022-11-15T00:55:13;8.48;;;4.97;;
15240;SDS011;7723;52.170;9.978;2022-11-15T00:57:43;7.43;;;4.50;;
15240;SDS011;7723;52.170;9.978;2022-11-15T01:00:11;6.30;;;4.82;;
15240;SDS011;7723;52.170;9.978;2022-11-15T01:02:39;5.72;;;4.45;;
15240;SDS011;7723;52.170;9.978;2022-11-15T01:05:06;6.35;;;4.40;;
15240;SDS011;7723;52.170;9.978;2022-11-15T01:07:34;8.13;;;4.90;;
15240;SDS011;7723;52.170;9.978;2022-11-15T01:10:02;10.13;;;5.50;;
15240;SDS011;7723;52.170;9.978;2022-11-15T01:12:30;6.85;;;4.50;;
15240;SDS011;7723;52.170;9.978;2022-11-15T01:14:59;11.18;;;6.15;;
15240;SDS011;7723;52.170;9.978;2022-11-15T01:17:26;11.40;;;5.55;;
15240;SDS011;7723;52.170;9.978;2022-11-15T01:19:53;9.07;;;5.55;;
15240;SDS011;7723;52.170;9.978;2022-11-15T01:22:21;7.10;;;4.78;;
15240;SDS011;7723;52.170;9.978;2022-11-15T01:24:49;9.20;;;5.18;;
15240;SDS011;7723;52.170;9.978;2022-11-15T01:27:17;10.35;;;5.15;;
15240;SDS011;7723;52.170;9.978;2022-11-15T01:29:44;7.45;;;5.63;;
15240;SDS011;7723;52.170;9.978;2022-11-15T01:32:13;6.88;;;4.88;;
15240;SDS011;7723;52.170;9.978;2022-11-15T01:34:40;8.90;;;4.55;;
15240;SDS011;7723;52.170;9.978;2022-11-15T01:37:08;8.50;;;4.40;;
15240;SDS011;7723;52.170;9.978;2022-11-15T01:39:36;8.88;;;3.95;;
15240;SDS011;7723;52.170;9.978;2022-11-15T01:42:03;8.38;;;5.50;;
15240;SDS011;7723;52.170;9.978;2022-11-15T01:44:34;6.47;;;4.63;;
15240;SDS011;7723;52.170;9.978;2022-11-15T01:47:06;5.97;;;4.00;;
15240;SDS011;7723;52.170;9.978;2022-11-15T01:49:41;7.45;;;4.57;;
15240;SDS011;7723;52.170;9.978;2022-11-15T01:52:17;6.57;;;4.18;;
15240;SDS011;7723;52.170;9.978;2022-11-15T01:54:47;6.55;;;5.05;;
15240;SDS011;7723;52.170;9.978;2022-11-15T01:57:17;6.82;;;4.03;;
15240;SDS011;7723;52.170;9.978;2022-11-15T01:59:44;8.25;;;4.78;;
15240;SDS011;7723;52.170;9.978;2022-11-15T02:02:13;5.60;;;3.60;;
15240;SDS011;7723;52.170;9.978;2022-11-15T02:04:43;7.93;;;4.32;;
15240;SDS011;7723;52.170;9.978;2022-11-15T02:07:13;6.50;;;4.85;;
15240;SDS011;7723;52.170;9.978;2022-11-15T02:09:43;6.88;;;4.18;;
15240;SDS011;7723;52.170;9.978;2022-11-15T02:12:13;6.68;;;4.90;;
15240;SDS011;7723;52.170;9.978;2022-11-15T02:14:45;5.95;;;4.07;;
15240;SDS011;7723;52.170;9.978;2022-11-15T02:17:20;6.22;;;4.25;;
15240;SDS011;7723;52.170;9.978;2022-11-15T02:20:08;5.18;;;4.30;;
15240;SDS011;7723;52.170;9.978;2022-11-15T02:23:02;8.05;;;4.00;;
15240;SDS011;7723;52.170;9.978;2022-11-15T02:25:45;5.45;;;4.03;;
15240;SDS011;7723;52.170;9.978;2022-11-15T02:28:44;6.97;;;4.22;;
15240;SDS011;7723;52.170;9.978;2022-11-15T02:31:20;7.57;;;3.72;;
15240;SDS011;7723;52.170;9.978;2022-11-15T02:33:53;7.05;;;4.28;;
15240;SDS011;7723;52.170;9.978;2022-11-15T02:36:28;6.65;;;4.00;;
15240;SDS011;7723;52.170;9.978;2022-11-15T02:39:03;5.07;;;3.95;;
15240;SDS011;7723;52.170;9.978;2022-11-15T02:41:38;6.90;;;4.30;;
15240;SDS011;7723;52.170;9.978;2022-11-15T02:44:12;8.23;;;3.97;;
15240;SDS011;7723;52.170;9.978;2022-11-15T02:46:45;6.68;;;4.10;;
15240;SDS011;7723;52.170;9.978;2022-11-15T02:49:33;7.05;;;3.88;;
15240;SDS011;7723;52.170;9.978;2022-11-15T02:52:03;6.72;;;4.03;;
15240;SDS011;7723;52.170;9.978;2022-11-15T02:54:31;5.35;;;3.83;;
15240;SDS011;7723;52.170;9.978;2022-11-15T02:56:59;4.78;;;3.70;;
15240;SDS011;7723;52.170;9.978;2022-11-15T02:59:44;4.40;;;3.47;;
15240;SDS011;7723;52.170;9.978;2022-11-15T03:02:30;6.20;;;3.85;;
15240;SDS011;7723;52.170;9.978;2022-11-15T03:05:21;4.13;;;3.40;;
15240;SDS011;7723;52.170;9.978;2022-11-15T03:07:58;4.43;;;3.45;;
15240;SDS011;7723;52.170;9.978;2022-11-15T03:10:32;5.13;;;3.35;;
15240;SDS011;7723;52.170;9.978;2022-11-15T03:13:09;4.40;;;3.58;;
15240;SDS011;7723;52.170;9.978;2022-11-15T03:15:44;4.80;;;3.40;;
15240;SDS011;7723;52.170;9.978;2022-11-15T03:18:19;5.75;;;3.67;;
15240;SDS011;7723;52.170;9.978;2022-11-15T03:20:53;5.95;;;3.20;;
15240;SDS011;7723;52.170;9.978;2022-11-15T03:23:22;6.93;;;3.67;;
15240;SDS011;7723;52.170;9.978;2022-11-15T03:25:50;5.47;;;3.53;;
15240;SDS011;7723;52.170;9.978;2022-11-15T03:28:20;5.50;;;3.30;;
15240;SDS011;7723;52.170;9.978;2022-11-15T03:30:51;5.78;;;3.42;;
15240;SDS011;7723;52.170;9.978;2022-11-15T03:33:21;6.28;;;3.47;;
15240;SDS011;7723;52.170;9.978;2022-11-15T03:35:49;4.18;;;3.10;;
15240;SDS011;7723;52.170;9.978;2022-11-15T03:38:19;4.07;;;3.20;;
15240;SDS011;7723;52.170;9.978;2022-11-15T03:40:52;5.68;;;3.30;;
15240;SDS011;7723;52.170;9.978;2022-11-15T03:43:26;5.10;;;3.10;;
15240;SDS011;7723;52.170;9.978;2022-11-15T03:46:01;5.30;;;3.92;;
15240;SDS011;7723;52.170;9.978;2022-11-15T03:48:33;4.60;;;3.20;;
15240;SDS011;7723;52.170;9.978;2022-11-15T03:51:05;8.50;;;3.75;;
15240;SDS011;7723;52.170;9.978;2022-11-15T03:53:33;6.03;;;3.53;;
15240;SDS011;7723;52.170;9.978;2022-11-15T03:56:00;4.10;;;3.15;;
15240;SDS011;7723;52.170;9.978;2022-11-15T03:58:28;5.88;;;4.22;;
15240;SDS011;7723;52.170;9.978;2022-11-15T04:00:55;9.60;;;3.47;;
15240;SDS011;7723;52.170;9.978;2022-11-15T04:03:24;3.78;;;3.10;;
15240;SDS011;7723;52.170;9.978;2022-11-15T04:05:53;6.07;;;4.00;;
15240;SDS011;7723;52.170;9.978;2022-11-15T04:08:20;6.82;;;4.35;;
15240;SDS011;7723;52.170;9.978;2022-11-15T04:10:48;5.75;;;3.20;;
15240;SDS011;7723;52.170;9.978;2022-11-15T04:13:16;7.78;;;3.80;;
15240;SDS011;7723;52.170;9.978;2022-11-15T04:15:43;5.32;;;3.67;;
15240;SDS011;7723;52.170;9.978;2022-11-15T04:18:10;5.88;;;3.50;;
15240;SDS011;7723;52.170;9.978;2022-11-15T04:20:38;4.03;;;3.25;;
15240;SDS011;7723;52.170;9.978;2022-11-15T04:23:23;8.80;;;4.30;;
15240;SDS011;7723;52.170;9.978;2022-11-15T04:26:09;4.95;;;3.28;;
15240;SDS011;7723;52.170;9.978;2022-11-15T04:28:38;7.18;;;4.03;;
15240;SDS011;7723;52.170;9.978;2022-11-15T04:31:26;5.85;;;3.90;;
15240;SDS011;7723;52.170;9.978;2022-11-15T04:33:53;5.63;;;3.72;;
15240;SDS011;7723;52.170;9.978;2022-11-15T04:36:21;5.15;;;2.83;;
15240;SDS011;7723;52.170;9.978;2022-11-15T04:39:03;4.50;;;3.13;;
15240;SDS011;7723;52.170;9.978;2022-11-15T04:41:31;6.68;;;3.40;;
15240;SDS011;7723;52.170;9.978;2022-11-15T04:43:58;3.80;;;3.05;;
15240;SDS011;7723;52.170;9.978;2022-11-15T04:46:26;3.78;;;2.80;;
15240;SDS011;7723;52.170;9.978;2022-11-15T04:48:53;4.85;;;3.05;;
15240;SDS011;7723;52.170;9.978;2022-11-15T04:51:21;7.00;;;3.35;;
15240;SDS011;7723;52.170;9.978;2022-11-15T04:53:48;6.75;;;3.38;;
15240;SDS011;7723;52.170;9.978;2022-11-15T04:56:17;4.55;;;2.97;;
15240;SDS011;7723;52.170;9.978;2022-11-15T04:58:44;4.72;;;3.30;;
15240;SDS011;7723;52.170;9.978;2022-11-15T05:01:12;4.32;;;3.10;;
15240;SDS011;7723;52.170;9.978;2022-11-15T05:03:40;5.18;;;2.70;;
15240;SDS011;7723;52.170;9.978;2022-11-15T05:06:25;5.53;;;3.35;;
15240;SDS011;7723;52.170;9.978;2022-11-15T05:08:52;3.42;;;2.72;;
15240;SDS011;7723;52.170;9.978;2022-11-15T05:11:21;6.05;;;3.45;;
15240;SDS011;7723;52.170;9.978;2022-11-15T05:13:49;4.38;;;3.28;;
15240;SDS011;7723;52.170;9.978;2022-11-15T05:16:16;5.47;;;3.53;;
15240;SDS011;7723;52.170;9.978;2022-11-15T05:18:44;4.90;;;3.13;;
15240;SDS011;7723;52.170;9.978;2022-11-15T05:21:12;6.38;;;3.10;;
15240;SDS011;7723;52.170;9.978;2022-11-15T05:23:41;5.25;;;3.15;;
15240;SDS011;7723;52.170;9.978;2022-11-15T05:26:08;5.03;;;3.17;;
15240;SDS011;7723;52.170;9.978;2022-11-15T05:28:38;5.45;;;2.80;;
15240;SDS011;7723;52.170;9.978;2022-11-15T05:31:06;3.63;;;2.72;;
15240;SDS011;7723;52.170;9.978;2022-11-15T05:33:39;4.10;;;2.75;;
15240;SDS011;7723;52.170;9.978;2022-11-15T05:36:07;4.68;;;2.75;;
15240;SDS011;7723;52.170;9.978;2022-11-15T05:38:39;4.15;;;3.05;;
15240;SDS011;7723;52.170;9.978;2022-11-15T05:41:07;3.95;;;3.13;;
15240;SDS011;7723;52.170;9.978;2022-11-15T05:43:35;7.55;;;2.88;;
15240;SDS011;7723;52.170;9.978;2022-11-15T05:46:05;4.13;;;2.90;;
15240;SDS011;7723;52.170;9.978;2022-11-15T05:48:33;3.53;;;2.72;;
15240;SDS011;7723;52.170;9.978;2022-11-15T05:51:02;5.85;;;3.25;;
15240;SDS011;7723;52.170;9.978;2022-11-15T05:53:31;3.85;;;2.55;;
15240;SDS011;7723;52.170;9.978;2022-11-15T05:55:59;6.88;;;3.20;;
15240;SDS011;7723;52.170;9.978;2022-11-15T05:58:26;4.57;;;3.17;;
15240;SDS011;7723;52.170;9.978;2022-11-15T06:00:55;5.00;;;2.40;;
15240;SDS011;7723;52.170;9.978;2022-11-15T06:03:22;4.50;;;3.17;;
15240;SDS011;7723;52.170;9.978;2022-11-15T06:05:49;5.00;;;2.70;;
15240;SDS011;7723;52.170;9.978;2022-11-15T06:08:17;5.15;;;3.25;;
15240;SDS011;7723;52.170;9.978;2022-11-15T06:10:44;3.47;;;2.80;;
15240;SDS011;7723;52.170;9.978;2022-11-15T06:13:11;5.30;;;3.30;;
15240;SDS011;7723;52.170;9.978;2022-11-15T06:15:39;5.50;;;2.83;;
15240;SDS011;7723;52.170;9.978;2022-11-15T06:18:07;5.10;;;3.30;;
15240;SDS011;7723;52.170;9.978;2022-11-15T06:20:35;16.58;;;5.38;;
15240;SDS011;7723;52.170;9.978;2022-11-15T06:23:03;18.95;;;5.22;;
15240;SDS011;7723;52.170;9.978;2022-11-15T06:25:31;10.73;;;4.25;;
15240;SDS011;7723;52.170;9.978;2022-11-15T06:27:58;7.60;;;3.47;;
15240;SDS011;7723;52.170;9.978;2022-11-15T06:30:26;7.28;;;3.25;;
15240;SDS011;7723;52.170;9.978;2022-11-15T06:32:58;15.18;;;4.15;;
15240;SDS011;7723;52.170;9.978;2022-11-15T06:35:27;5.43;;;3.67;;
15240;SDS011;7723;52.170;9.978;2022-11-15T06:37:55;4.70;;;3.70;;
15240;SDS011;7723;52.170;9.978;2022-11-15T06:40:22;6.25;;;3.80;;
15240;SDS011;7723;52.170;9.978;2022-11-15T06:42:50;9.40;;;4.15;;
15240;SDS011;7723;52.170;9.978;2022-11-15T06:45:17;8.57;;;3.85;;
15240;SDS011;7723;52.170;9.978;2022-11-15T06:47:44;10.50;;;4.05;;
15240;SDS011;7723;52.170;9.978;2022-11-15T06:50:12;17.80;;;4.63;;
15240;SDS011;7723;52.170;9.978;2022-11-15T06:52:41;13.18;;;4.82;;
15240;SDS011;7723;52.170;9.978;2022-11-15T06:55:09;20.92;;;5.80;;
15240;SDS011;7723;52.170;9.978;2022-11-15T06:57:36;11.60;;;4.93;;
15240;SDS011;7723;52.170;9.978;2022-11-15T07:00:13;13.13;;;5.40;;
15240;SDS011;7723;52.170;9.978;2022-11-15T07:02:42;7.72;;;4.15;;
15240;SDS011;7723;52.170;9.978;2022-11-15T07:05:10;5.38;;;3.55;;
15240;SDS011;7723;52.170;9.978;2022-11-15T07:07:38;4.47;;;3.17;;
15240;SDS011;7723;52.170;9.978;2022-11-15T07:10:07;4.57;;;2.85;;
15240;SDS011;7723;52.170;9.978;2022-11-15T07:12:35;5.10;;;3.05;;
15240;SDS011;7723;52.170;9.978;2022-11-15T07:15:02;6.00;;;3.30;;
15240;SDS011;7723;52.170;9.978;2022-11-15T07:17:30;3.72;;;3.10;;
15240;SDS011;7723;52.170;9.978;2022-11-15T07:19:58;5.55;;;3.28;;
15240;SDS011;7723;52.170;9.978;2022-11-15T07:22:25;5.88;;;3.38;;
15240;SDS011;7723;52.170;9.978;2022-11-15T07:24:52;5.35;;;3.00;;
15240;SDS011;7723;52.170;9.978;2022-11-15T07:27:21;3.22;;;2.70;;
15240;SDS011;7723;52.170;9.978;2022-11-15T07:29:48;4.47;;;2.70;;
15240;SDS011;7723;52.170;9.978;2022-11-15T07:32:15;4.18;;;2.53;;
15240;SDS011;7723;52.170;9.978;2022-11-15T07:34:43;5.40;;;2.78;;
15240;SDS011;7723;52.170;9.978;2022-11-15T07:37:11;4.30;;;2.70;;
15240;SDS011;7723;52.170;9.978;2022-11-15T07:39:39;3.78;;;2.42;;
15240;SDS011;7723;52.170;9.978;2022-11-15T07:42:06;5.22;;;2.65;;
15240;SDS011;7723;52.170;9.978;2022-11-15T07:44:57;3.15;;;2.40;;
15240;SDS011;7723;52.170;9.978;2022-11-15T07:47:24;3.72;;;2.63;;
15240;SDS011;7723;52.170;9.978;2022-11-15T07:49:54;7.72;;;2.40;;
15240;SDS011;7723;52.170;9.978;2022-11-15T07:52:22;2.60;;;2.17;;
15240;SDS011;7723;52.170;9.978;2022-11-15T07:54:49;4.82;;;2.45;;
15240;SDS011;7723;52.170;9.978;2022-11-15T07:57:16;3.85;;;2.28;;
15240;SDS011;7723;52.170;9.978;2022-11-15T07:59:43;3.45;;;2.22;;
15240;SDS011;7723;52.170;9.978;2022-11-15T08:02:12;4.25;;;2.47;;
15240;SDS011;7723;52.170;9.978;2022-11-15T08:04:41;4.40;;;2.28;;
15240;SDS011;7723;52.170;9.978;2022-11-15T08:07:08;5.60;;;2.40;;
15240;SDS011;7723;52.170;9.978;2022-11-15T08:09:36;5.10;;;2.25;;
15240;SDS011;7723;52.170;9.978;2022-11-15T08:12:03;3.10;;;2.15;;
15240;SDS011;7723;52.170;9.978;2022-11-15T08:14:31;2.35;;;2.08;;
15240;SDS011;7723;52.170;9.978;2022-11-15T08:16:58;4.55;;;2.75;;
15240;SDS011;7723;52.170;9.978;2022-11-15T08:19:27;4.15;;;2.60;;
15240;SDS011;7723;52.170;9.978;2022-11-15T08:21:54;4.00;;;2.63;;
15240;SDS011;7723;52.170;9.978;2022-11-15T08:24:22;4.53;;;2.30;;
15240;SDS011;7723;52.170;9.978;2022-11-15T08:26:49;2.85;;;2.05;;
15240;SDS011;7723;52.170;9.978;2022-11-15T08:29:16;2.45;;;2.22;;
15240;SDS011;7723;52.170;9.978;2022-11-15T08:31:44;3.17;;;2.20;;
15240;SDS011;7723;52.170;9.978;2022-11-15T08:34:11;4.63;;;2.35;;
15240;SDS011;7723;52.170;9.978;2022-11-15T08:36:40;4.00;;;2.72;;
15240;SDS011;7723;52.170;9.978;2022-11-15T08:39:09;2.85;;;2.05;;
15240;SDS011;7723;52.170;9.978;2022-11-15T08:41:37;4.88;;;2.50;;
15240;SDS011;7723;52.170;9.978;2022-11-15T08:44:04;3.60;;;2.47;;
15240;SDS011;7723;52.170;9.978;2022-11-15T08:46:32;3.83;;;2.40;;
15240;SDS011;7723;52.170;9.978;2022-11-15T08:48:59;3.60;;;2.90;;
15240;SDS011;7723;52.170;9.978;2022-11-15T08:51:26;3.58;;;2.60;;
15240;SDS011;7723;52.170;9.978;2022-11-15T08:53:55;4.30;;;2.45;;
15240;SDS011;7723;52.170;9.978;2022-11-15T08:56:22;3.08;;;2.17;;
15240;SDS011;7723;52.170;9.978;2022-11-15T08:58:49;4.45;;;2.45;;
15240;SDS011;7723;52.170;9.978;2022-11-15T09:01:17;3.00;;;2.58;;
15240;SDS011;7723;52.170;9.978;2022-11-15T09:03:46;2.78;;;2.33;;
15240;SDS011;7723;52.170;9.978;2022-11-15T09:06:14;2.42;;;2.00;;
15240;SDS011;7723;52.170;9.978;2022-11-15T09:08:41;4.18;;;2.55;;
15240;SDS011;7723;52.170;9.978;2022-11-15T09:11:10;4.00;;;2.70;;
15240;SDS011;7723;52.170;9.978;2022-11-15T09:13:37;3.45;;;2.60;;
15240;SDS011;7723;52.170;9.978;2022-11-15T09:16:05;6.00;;;2.58;;
15240;SDS011;7723;52.170;9.978;2022-11-15T09:18:33;4.90;;;2.40;;
15240;SDS011;7723;52.170;9.978;2022-11-15T09:21:01;5.95;;;2.92;;
15240;SDS011;7723;52.170;9.978;2022-11-15T09:23:29;2.70;;;2.20;;
15240;SDS011;7723;52.170;9.978;2022-11-15T09:25:59;5.97;;;2.28;;
15240;SDS011;7723;52.170;9.978;2022-11-15T09:28:29;3.60;;;2.90;;
15240;SDS011;7723;52.170;9.978;2022-11-15T09:30:58;5.45;;;2.30;;
15240;SDS011;7723;52.170;9.978;2022-11-15T09:33:26;4.68;;;2.50;;
15240;SDS011;7723;52.170;9.978;2022-11-15T09:35:54;3.17;;;2.33;;
15240;SDS011;7723;52.170;9.978;2022-11-15T09:38:25;3.05;;;2.20;;
15240;SDS011;7723;52.170;9.978;2022-11-15T09:40:56;2.78;;;2.15;;
15240;SDS011;7723;52.170;9.978;2022-11-15T09:43:39;3.47;;;2.42;;
15240;SDS011;7723;52.170;9.978;2022-11-15T09:46:13;3.17;;;2.13;;
15240;SDS011;7723;52.170;9.978;2022-11-15T09:48:48;5.05;;;2.53;;
15240;SDS011;7723;52.170;9.978;2022-11-15T09:51:22;5.05;;;2.42;;
15240;SDS011;7723;52.170;9.978;2022-11-15T09:53:56;3.70;;;2.60;;
15240;SDS011;7723;52.170;9.978;2022-11-15T09:56:28;4.82;;;2.15;;
15240;SDS011;7723;52.170;9.978;2022-11-15T09:59:02;4.15;;;2.40;;
15240;SDS011;7723;52.170;9.978;2022-11-15T10:01:43;3.17;;;2.55;;
15240;SDS011;7723;52.170;9.978;2022-11-15T10:04:16;2.10;;;1.90;;
15240;SDS011;7723;52.170;9.978;2022-11-15T10:06:46;3.60;;;2.25;;
15240;SDS011;7723;52.170;9.978;2022-11-15T10:09:19;4.10;;;2.78;;
15240;SDS011;7723;52.170;9.978;2022-11-15T10:11:50;4.13;;;2.25;;
15240;SDS011;7723;52.170;9.978;2022-11-15T10:14:19;4.75;;;2.55;;
15240;SDS011;7723;52.170;9.978;2022-11-15T10:16:55;3.47;;;2.00;;
15240;SDS011;7723;52.170;9.978;2022-11-15T10:19:40;2.33;;;1.65;;
15240;SDS011;7723;52.170;9.978;2022-11-15T10:22:18;3.90;;;2.55;;
15240;SDS011;7723;52.170;9.978;2022-11-15T10:24:57;4.72;;;2.33;;
15240;SDS011;7723;52.170;9.978;2022-11-15T10:27:37;4.28;;;2.50;;
15240;SDS011;7723;52.170;9.978;2022-11-15T10:30:11;5.32;;;2.10;;
15240;SDS011;7723;52.170;9.978;2022-11-15T10:32:40;2.63;;;1.83;;
15240;SDS011;7723;52.170;9.978;2022-11-15T10:35:17;3.58;;;2.28;;
15240;SDS011;7723;52.170;9.978;2022-11-15T10:37:50;4.45;;;2.60;;
15240;SDS011;7723;52.170;9.978;2022-11-15T10:40:19;3.15;;;1.80;;
15240;SDS011;7723;52.170;9.978;2022-11-15T10:42:48;3.35;;;2.30;;
15240;SDS011;7723;52.170;9.978;2022-11-15T10:45:32;2.97;;;2.40;;
15240;SDS011;7723;52.170;9.978;2022-11-15T10:48:23;3.05;;;2.15;;
15240;SDS011;7723;52.170;9.978;2022-11-15T10:50:51;2.05;;;1.83;;
15240;SDS011;7723;52.170;9.978;2022-11-15T10:53:22;6.82;;;2.53;;
15240;SDS011;7723;52.170;9.978;2022-11-15T10:56:00;3.67;;;2.08;;
15240;SDS011;7723;52.170;9.978;2022-11-15T10:58:32;4.43;;;2.60;;
15240;SDS011;7723;52.170;9.978;2022-11-15T11:01:10;4.72;;;2.63;;
15240;SDS011;7723;52.170;9.978;2022-11-15T11:03:40;5.78;;;2.70;;
15240;SDS011;7723;52.170;9.978;2022-11-15T11:06:10;7.00;;;3.13;;
15240;SDS011;7723;52.170;9.978;2022-11-15T11:08:38;3.40;;;2.28;;
15240;SDS011;7723;52.170;9.978;2022-11-15T11:11:06;4.45;;;2.20;;
15240;SDS011;7723;52.170;9.978;2022-11-15T11:13:35;3.95;;;2.08;;
15240;SDS011;7723;52.170;9.978;2022-11-15T11:16:09;3.20;;;2.33;;
15240;SDS011;7723;52.170;9.978;2022-11-15T11:18:59;3.95;;;2.15;;
15240;SDS011;7723;52.170;9.978;2022-11-15T11:21:35;4.53;;;2.22;;
15240;SDS011;7723;52.170;9.978;2022-11-15T11:24:12;6.30;;;3.15;;
15240;SDS011;7723;52.170;9.978;2022-11-15T11:26:46;3.80;;;2.22;;
15240;SDS011;7723;52.170;9.978;2022-11-15T11:29:28;4.40;;;2.47;;
15240;SDS011;7723;52.170;9.978;2022-11-15T11:32:05;3.05;;;2.40;;
15240;SDS011;7723;52.170;9.978;2022-11-15T11:34:49;2.63;;;1.95;;
15240;SDS011;7723;52.170;9.978;2022-11-15T11:37:24;2.95;;;1.90;;
15240;SDS011;7723;52.170;9.978;2022-11-15T11:40:00;2.78;;;1.83;;
15240;SDS011;7723;52.170;9.978;2022-11-15T11:42:38;2.90;;;2.22;;
15240;SDS011;7723;52.170;9.978;2022-11-15T11:45:15;3.08;;;1.90;;
15240;SDS011;7723;52.170;9.978;2022-11-15T11:47:46;3.58;;;2.13;;
15240;SDS011;7723;52.170;9.978;2022-11-15T11:50:19;4.10;;;2.67;;
15240;SDS011;7723;52.170;9.978;2022-11-15T11:52:53;3.75;;;2.08;;
15240;SDS011;7723;52.170;9.978;2022-11-15T11:55:24;3.45;;;2.03;;
15240;SDS011;7723;52.170;9.978;2022-11-15T11:58:02;3.20;;;2.10;;
15240;SDS011;7723;52.170;9.978;2022-11-15T12:00:38;2.75;;;2.30;;
15240;SDS011;7723;52.170;9.978;2022-11-15T12:03:09;2.92;;;2.10;;
15240;SDS011;7723;52.170;9.978;2022-11-15T12:05:42;3.85;;;2.30;;
15240;SDS011;7723;52.170;9.978;2022-11-15T12:08:18;3.65;;;2.30;;
15240;SDS011;7723;52.170;9.978;2022-11-15T12:10:56;3.83;;;2.35;;
15240;SDS011;7723;52.170;9.978;2022-11-15T12:13:30;4.07;;;2.30;;
15240;SDS011;7723;52.170;9.978;2022-11-15T12:16:03;5.25;;;2.13;;
15240;SDS011;7723;52.170;9.978;2022-11-15T12:18:34;2.97;;;2.42;;
15240;SDS011;7723;52.170;9.978;2022-11-15T12:21:04;4.18;;;2.53;;
15240;SDS011;7723;52.170;9.978;2022-11-15T12:23:37;2.72;;;1.83;;
15240;SDS011;7723;52.170;9.978;2022-11-15T12:26:10;3.17;;;1.95;;
15240;SDS011;7723;52.170;9.978;2022-11-15T12:28:42;4.05;;;2.13;;
15240;SDS011;7723;52.170;9.978;2022-11-15T12:31:15;5.28;;;2.10;;
15240;SDS011;7723;52.170;9.978;2022-11-15T12:33:47;2.63;;;1.95;;
15240;SDS011;7723;52.170;9.978;2022-11-15T12:36:32;3.05;;;2.10;;
15240;SDS011;7723;52.170;9.978;2022-11-15T12:39:04;4.05;;;2.33;;
15240;SDS011;7723;52.170;9.978;2022-11-15T12:41:33;4.60;;;2.25;;
15240;SDS011;7723;52.170;9.978;2022-11-15T12:44:01;6.28;;;2.42;;
15240;SDS011;7723;52.170;9.978;2022-11-15T12:49:43;3.55;;;2.42;;
15240;SDS011;7723;52.170;9.978;2022-11-15T12:52:13;4.55;;;1.98;;
15240;SDS011;7723;52.170;9.978;2022-11-15T12:54:54;2.90;;;2.10;;
15240;SDS011;7723;52.170;9.978;2022-11-15T12:57:30;2.45;;;1.98;;
15240;SDS011;7723;52.170;9.978;2022-11-15T13:00:01;3.33;;;2.10;;
15240;SDS011;7723;52.170;9.978;2022-11-15T13:02:32;3.15;;;2.15;;
15240;SDS011;7723;52.170;9.978;2022-11-15T13:05:49;3.72;;;2.15;;
15240;SDS011;7723;52.170;9.978;2022-11-15T13:17:12;6.72;;;2.17;;
15240;SDS011;7723;52.170;9.978;2022-11-15T13:20:00;3.78;;;2.35;;
15240;SDS011;7723;52.170;9.978;2022-11-15T13:22:40;3.25;;;2.22;;
15240;SDS011;7723;52.170;9.978;2022-11-15T13:25:39;2.45;;;1.70;;
15240;SDS011;7723;52.170;9.978;2022-11-15T13:28:29;4.35;;;2.20;;
15240;SDS011;7723;52.170;9.978;2022-11-15T13:31:00;9.40;;;3.47;;
15240;SDS011;7723;52.170;9.978;2022-11-15T13:33:30;2.47;;;1.95;;
15240;SDS011;7723;52.170;9.978;2022-11-15T13:36:00;4.85;;;2.35;;
15240;SDS011;7723;52.170;9.978;2022-11-15T13:38:29;2.95;;;2.20;;
15240;SDS011;7723;52.170;9.978;2022-11-15T13:40:58;2.38;;;1.92;;
15240;SDS011;7723;52.170;9.978;2022-11-15T13:43:38;17.52;;;4.28;;
15240;SDS011;7723;52.170;9.978;2022-11-15T13:46:11;11.45;;;3.42;;
15240;SDS011;7723;52.170;9.978;2022-11-15T13:48:42;12.80;;;5.20;;
15240;SDS011;7723;52.170;9.978;2022-11-15T13:51:13;8.63;;;4.53;;
15240;SDS011;7723;52.170;9.978;2022-11-15T13:53:46;9.32;;;3.75;;
15240;SDS011;7723;52.170;9.978;2022-11-15T13:56:16;7.40;;;4.05;;
15240;SDS011;7723;52.170;9.978;2022-11-15T13:58:46;5.20;;;2.83;;
15240;SDS011;7723;52.170;9.978;2022-11-15T14:01:15;4.15;;;2.65;;
15240;SDS011;7723;52.170;9.978;2022-11-15T14:03:50;7.13;;;2.13;;
15240;SDS011;7723;52.170;9.978;2022-11-15T14:06:21;4.80;;;2.40;;
15240;SDS011;7723;52.170;9.978;2022-11-15T14:09:04;3.22;;;2.05;;
15240;SDS011;7723;52.170;9.978;2022-11-15T14:11:51;8.30;;;2.03;;
15240;SDS011;7723;52.170;9.978;2022-11-15T14:14:22;3.85;;;2.30;;
15240;SDS011;7723;52.170;9.978;2022-11-15T14:16:50;3.78;;;1.73;;
15240;SDS011;7723;52.170;9.978;2022-11-15T14:19:39;4.03;;;1.92;;
15240;SDS011;7723;52.170;9.978;2022-11-15T14:22:11;4.00;;;2.00;;
15240;SDS011;7723;52.170;9.978;2022-11-15T14:24:44;2.20;;;1.80;;
15240;SDS011;7723;52.170;9.978;2022-11-15T14:27:16;3.83;;;1.95;;
15240;SDS011;7723;52.170;9.978;2022-11-15T14:29:49;2.88;;;1.88;;
15240;SDS011;7723;52.170;9.978;2022-11-15T14:32:17;2.78;;;1.98;;
15240;SDS011;7723;52.170;9.978;2022-11-15T14:34:46;3.97;;;2.35;;
15240;SDS011;7723;52.170;9.978;2022-11-15T14:37:21;3.97;;;1.80;;
15240;SDS011;7723;52.170;9.978;2022-11-15T14:39:50;4.93;;;2.22;;
15240;SDS011;7723;52.170;9.978;2022-11-15T14:42:18;3.42;;;2.30;;
15240;SDS011;7723;52.170;9.978;2022-11-15T14:44:48;4.30;;;2.10;;
15240;SDS011;7723;52.170;9.978;2022-11-15T14:47:16;5.63;;;2.00;;
15240;SDS011;7723;52.170;9.978;2022-11-15T14:49:43;4.63;;;2.03;;
15240;SDS011;7723;52.170;9.978;2022-11-15T14:52:24;2.85;;;1.90;;
15240;SDS011;7723;52.170;9.978;2022-11-15T14:54:54;3.47;;;1.92;;
15240;SDS011;7723;52.170;9.978;2022-11-15T14:57:23;6.63;;;2.17;;
15240;SDS011;7723;52.170;9.978;2022-11-15T14:59:52;4.20;;;2.13;;
15240;SDS011;7723;52.170;9.978;2022-11-15T15:02:20;4.40;;;1.88;;
15240;SDS011;7723;52.170;9.978;2022-11-15T15:04:49;4.07;;;1.73;;
15240;SDS011;7723;52.170;9.978;2022-11-15T15:07:18;2.92;;;1.90;;
15240;SDS011;7723;52.170;9.978;2022-11-15T15:09:46;2.83;;;2.28;;
15240;SDS011;7723;52.170;9.978;2022-11-15T15:12:14;3.08;;;1.95;;
15240;SDS011;7723;52.170;9.978;2022-11-15T15:14:44;2.20;;;1.80;;
15240;SDS011;7723;52.170;9.978;2022-11-15T15:17:13;3.70;;;1.92;;
15240;SDS011;7723;52.170;9.978;2022-11-15T15:19:40;3.28;;;2.15;;
15240;SDS011;7723;52.170;9.978;2022-11-15T15:22:10;2.60;;;2.20;;
15240;SDS011;7723;52.170;9.978;2022-11-15T15:24:40;3.67;;;2.15;;
15240;SDS011;7723;52.170;9.978;2022-11-15T15:27:08;3.15;;;2.13;;
15240;SDS011;7723;52.170;9.978;2022-11-15T15:29:36;3.03;;;1.73;;
15240;SDS011;7723;52.170;9.978;2022-11-15T15:32:03;6.57;;;3.08;;
15240;SDS011;7723;52.170;9.978;2022-11-15T15:34:32;2.33;;;2.10;;
15240;SDS011;7723;52.170;9.978;2022-11-15T15:37:06;2.95;;;2.58;;